createdAt,value
2023-04-15T00:04:53.694Z,99138.29
2023-04-15T00:13:18.681Z,99133.92
2023-04-15T00:21:42.794Z,99132.23
2023-04-15T00:30:27.860Z,99131.96
2023-04-15T00:38:51.537Z,99130.81
2023-04-15T00:47:15.847Z,99124.83
2023-04-15T00:55:40.578Z,99122.46
2023-04-15T01:04:05.987Z,99119.50
2023-04-15T01:12:39.726Z,99120.64
2023-04-15T01:21:07.405Z,99119.02
2023-04-15T01:29:37.079Z,99129.84
2023-04-15T01:38:17.513Z,99121.41
2023-04-15T01:46:59.550Z,99122.30
2023-04-15T01:55:27.227Z,99123.65
2023-04-15T02:03:51.513Z,99129.80
2023-04-15T02:12:18.615Z,99121.07
2023-04-15T02:20:45.902Z,99117.71
2023-04-15T02:29:17.192Z,99114.44
2023-04-15T02:37:45.996Z,99114.31
2023-04-15T02:46:15.559Z,99113.13
2023-04-15T02:54:39.584Z,99104.48
2023-04-15T03:03:05.459Z,99106.79
2023-04-15T03:11:31.783Z,99106.83
2023-04-15T03:19:57.313Z,99113.23
2023-04-15T03:28:21.074Z,99112.24
2023-04-15T03:36:45.126Z,99110.33
2023-04-15T03:45:09.424Z,99113.26
2023-04-15T03:53:33.454Z,99115.35
2023-04-15T04:01:57.995Z,99115.29
2023-04-15T04:10:23.411Z,99118.31
2023-04-15T04:18:46.956Z,99117.80
2023-04-15T04:27:10.354Z,99113.26
2023-04-15T04:35:35.185Z,99119.05
2023-04-15T04:43:58.517Z,99116.95
2023-04-15T04:52:22.604Z,99123.14
2023-04-15T05:00:46.123Z,99119.80
2023-04-15T05:09:30.095Z,99129.58
2023-04-15T05:18:03.708Z,99130.64
2023-04-15T05:26:28.425Z,99129.30
2023-04-15T05:34:52.378Z,99129.24
2023-04-15T05:43:18.184Z,99134.44
2023-04-15T05:51:41.527Z,99142.23
2023-04-15T06:00:30.132Z,99138.02
2023-04-15T06:08:56.349Z,99145.89
2023-04-15T13:13:37.299Z,99294.85
2023-04-15T13:22:00.228Z,99309.33
2023-04-15T13:30:23.975Z,99315.73
2023-04-15T13:38:48.654Z,99298.12
2023-04-15T13:47:28.696Z,99295.27
2023-04-15T13:55:52.059Z,99298.84
2023-04-15T14:04:16.160Z,99308.51
2023-04-15T14:12:39.384Z,99311.95
2023-04-15T14:22:02.171Z,99313.17
2023-04-15T14:31:01.553Z,99329.76
2023-04-15T14:39:39.705Z,99343.83
2023-04-15T14:48:12.751Z,99355.70
2023-04-15T14:56:36.431Z,99357.88
2023-04-15T15:05:01.313Z,99358.16
2023-04-15T15:13:26.006Z,99350.31
2023-04-15T15:21:49.295Z,99353.79
2023-04-15T15:30:13.367Z,99358.01
2023-04-15T15:38:41.887Z,99368.55
2023-04-15T15:47:12.543Z,99370.58
